METAR Data
IDs: Format: Raw Decoded Include TAF

Data at: 2107 UTC 24 Mar 2019

KTPL 242051Z AUTO 17010KT 10SM 26/18 A3001 RMK AO2 SLP169 T02560178 58023 $
KTPL 241951Z AUTO 20010G16KT 10SM 24/18 A3004 RMK AO2 SLP178 T02440178 $
KTPL 241851Z AUTO 20011KT 10SM 23/18 A3006 RMK AO2 SLP188 T02280178 $
KTPL 241751Z AUTO 19011KT 10SM 22/18 A3008 RMK AO2 SLP194 T02170178 10217 20172 58004 $
KTPL 241651Z AUTO 19013KT 10SM 21/18 A3009 RMK AO2 SLP197 T02110178 $
KTPL 241551Z AUTO 20013KT 10SM 21/18 A3010 RMK AO2 SLP200 T02060178 $
KTPL 241451Z AUTO 18014KT 10SM 21/18 A3009 RMK AO2 SLP198 T02060183 51011 $
KTPL 241351Z AUTO 18007KT 10SM 18/18 A3009 RMK AO2 SLP197 T01830183 $
KTPL 241251Z AUTO 18008KT 10SM 17/17 A3007 RMK AO2 SLP191 T01720172 $
KTPL 241151Z AUTO 18008KT 10SM 18/17 A3006 RMK AO2 SLP188 70001 T01780172 10189 20172 53001 $
KTPL 241051Z AUTO 16007KT 10SM 18/17 A3005 RMK AO2 SLP185 T01780172 $
KTPL 240951Z AUTO 18007KT 10SM 18/17 A3006 RMK AO2 SLP186 T01780172 $
KTPL 240851Z AUTO 17008KT 10SM 18/17 A3006 RMK AO2 SLP186 T01780172 58002 $
KTPL 240751Z AUTO 17016KT 10SM 18/17 A3005 RMK AO2 SLP185 T01830172 $
KTPL 240651Z AUTO 17011G19KT 10SM 18/17 A3007 RMK AO2 SLP190 T01830172 $
KTPL 240551Z AUTO 16015KT 10SM 19/17 A3006 RMK AO2 SLP186 60001 T01890167 10211 20183 402330150 53006 $
KTPL 240451Z AUTO 16015KT 10SM 19/17 A3005 RMK AO2 SLP184 T01890167 $
KTPL 240351Z AUTO 16016KT 10SM 19/17 A3004 RMK AO2 SLP180 T01940167 $
KTPL 240251Z AUTO 16011KT 10SM 19/18 A3004 RMK AO2 RAE01 SLP182 P0000 60001 T01890178 50006 $
KTPL 240151Z AUTO 13006KT 8SM -RA 19/18 A3005 RMK AO2 RAB0055E21B40 SLP188 P0001 T01890178 $
KTPL 240051Z AUTO 16010KT 10SM 21/17 A3004 RMK AO2 SLP183 T02060167 $
KTPL 232351Z AUTO 16014KT 10SM 21/16 A3002 RMK AO2 SLP177 T02110161 10233 20211 55002 $
KTPL 232251Z AUTO 15016KT 10SM 21/17 A3001 RMK AO2 SLP172 T02110167 $
KTPL 232151Z AUTO 15016KT 10SM 21/16 A3002 RMK AO2 SLP175 T02110161 $
KTPL 232051Z AUTO 16015KT 10SM 22/16 A3003 RMK AO2 SLP179 T02170161 58018 $
KTPL 231951Z AUTO 17011KT 10SM 22/16 A3005 RMK AO2 SLP186 T02170156 $
KTPL 231851Z AUTO 18014KT 10SM 22/16 A3007 RMK AO2 SLP191 T02170161 $
KTPL 231751Z AUTO 16016G23KT 10SM 23/17 A3009 RMK AO2 SLP196 60000 T02330167 10233 20150 58007 $
KTPL 231651Z AUTO 17015KT 10SM 20/16 A3010 RMK AO2 SLP203 T02000161 $
KTPL 231551Z AUTO 16016G20KT 10SM 19/16 A3010 RMK AO2 SLP200 T01940156 $
KTPL 231451Z AUTO 14012KT 10SM 18/15 A3011 RMK AO2 SLP204 60000 T01830150 50013 $
KTPL 231351Z AUTO 15008KT 10SM 16/14 A3011 RMK AO2 RAE1252 SLP206 T01560144 $
KTPL 231251Z AUTO 14008KT 10SM -RA 15/13 A3008 RMK AO2 RAB37 SLP197 P0000 T01500133
KTPL 231151Z AUTO 17009KT 10SM 15/13 A3007 RMK AO2 TSB33E48 SLP192 60000 T01500128 10167 20150 53008 $
KTPL 231139Z AUTO 15007KT 10SM TS 15/12 A3006 RMK AO2 TSB33 $
KTPL 231051Z AUTO 14010KT 10SM 15/12 A3004 RMK AO2 SLP181 T01500117 $
KTPL 230951Z AUTO 16009KT 10SM 16/12 A3003 RMK AO2 RAB26E36 SLP177 P0000 T01560117 $